createdAt,value
2023-05-15T00:01:50.720Z,28.70
2023-05-15T00:03:55.263Z,28.90
2023-05-15T00:05:58.751Z,29.30
2023-05-15T00:08:02.244Z,28.80
2023-05-15T00:10:06.017Z,28.90
2023-05-15T00:12:09.840Z,28.90
2023-05-15T00:14:13.844Z,29.00
2023-05-15T00:16:17.126Z,28.90
2023-05-15T00:18:21.567Z,28.80
2023-05-15T00:20:25.119Z,28.90
2023-05-15T00:22:28.496Z,28.90
2023-05-15T00:24:32.932Z,28.90
2023-05-15T00:26:36.831Z,29.10
2023-05-15T00:28:40.048Z,29.30
2023-05-15T00:30:43.773Z,29.40
2023-05-15T00:32:46.895Z,29.30
2023-05-15T00:34:52.680Z,29.50
2023-05-15T00:36:55.794Z,29.70
2023-05-15T00:38:58.887Z,29.70
2023-05-15T00:41:03.329Z,29.80
2023-05-15T00:43:07.287Z,29.80
2023-05-15T00:45:18.090Z,29.70
2023-05-15T00:47:25.055Z,29.80
2023-05-15T00:49:29.581Z,29.60
2023-05-15T00:51:34.849Z,29.90
2023-05-15T00:53:39.165Z,29.90
2023-05-15T00:55:43.532Z,30.00
2023-05-15T00:57:48.952Z,30.40
2023-05-15T00:59:53.475Z,30.10
2023-05-15T01:01:57.995Z,30.30
2023-05-15T01:04:01.663Z,30.50
2023-05-15T01:06:06.941Z,30.70
2023-05-15T01:08:20.928Z,31.10
2023-05-15T01:10:24.605Z,31.30
2023-05-15T01:12:31.225Z,31.20
2023-05-15T01:14:36.051Z,31.10
2023-05-15T01:16:41.745Z,31.00
2023-05-15T01:18:46.350Z,30.70
2023-05-15T01:21:05.969Z,30.50
2023-05-15T01:23:19.784Z,31.30
2023-05-15T01:25:56.619Z,31.30
2023-05-15T01:28:04.852Z,31.90
2023-05-15T01:30:13.603Z,31.90
2023-05-15T01:32:24.350Z,31.50
2023-05-15T01:34:35.240Z,31.70
2023-05-15T01:36:44.013Z,32.00
2023-05-15T01:38:51.381Z,32.20
2023-05-15T01:41:03.010Z,32.80
2023-05-15T01:43:12.318Z,33.00
2023-05-15T01:45:16.191Z,33.50
2023-05-15T01:47:23.266Z,33.30
2023-05-15T01:49:29.177Z,34.00
2023-05-15T01:51:33.233Z,34.20
2023-05-15T01:53:38.475Z,34.10
2023-05-15T01:55:45.803Z,34.50
2023-05-15T01:57:49.900Z,34.50
2023-05-15T01:59:57.443Z,34.60
2023-05-15T02:02:02.691Z,34.80
2023-05-15T02:04:06.665Z,34.90
2023-05-15T02:06:11.345Z,34.80
2023-05-15T02:08:15.564Z,35.00
2023-05-15T02:10:22.335Z,35.00
2023-05-15T02:12:26.292Z,35.60
2023-05-15T02:14:32.123Z,35.40
2023-05-15T02:16:37.144Z,36.40
2023-05-15T02:18:41.591Z,35.80
2023-05-15T02:20:45.215Z,35.60
2023-05-15T02:22:48.508Z,35.80
2023-05-15T02:24:51.474Z,36.00
2023-05-15T02:27:01.767Z,35.90
2023-05-15T02:29:17.675Z,36.50
2023-05-15T02:31:28.477Z,37.00
2023-05-15T02:33:42.739Z,36.50
2023-05-15T02:35:52.379Z,36.40
2023-05-15T02:37:57.681Z,36.20
2023-05-15T02:40:02.874Z,36.00
2023-05-15T02:42:07.556Z,35.90
2023-05-15T02:44:12.540Z,35.80
2023-05-15T02:46:16.376Z,35.60
2023-05-15T02:48:20.282Z,35.40
2023-05-15T02:50:25.344Z,35.30
2023-05-15T02:52:28.723Z,35.40
2023-05-15T02:54:31.987Z,35.00
2023-05-15T02:56:34.942Z,34.90
2023-05-15T02:58:38.886Z,34.90
2023-05-15T03:00:41.871Z,34.80
2023-05-15T03:02:44.952Z,34.90
2023-05-15T03:04:48.323Z,34.70
2023-05-15T03:06:53.689Z,34.60
2023-05-15T03:08:56.769Z,34.80
2023-05-15T03:10:59.878Z,34.60
2023-05-15T03:13:03.707Z,34.80
2023-05-15T03:15:08.292Z,34.70
2023-05-15T03:17:11.489Z,34.80
2023-05-15T03:19:16.018Z,34.70
2023-05-15T03:21:19.589Z,34.70
2023-05-15T03:23:24.020Z,34.60
2023-05-15T03:25:28.338Z,34.50
2023-05-15T03:27:31.538Z,34.40
2023-05-15T03:29:34.753Z,34.40
2023-05-15T03:31:37.828Z,34.30
2023-05-15T03:33:40.946Z,34.30
2023-05-15T03:35:44.643Z,34.00
2023-05-15T03:37:47.760Z,33.90
2023-05-15T03:39:52.280Z,33.70
2023-05-15T03:41:55.742Z,33.70
2023-05-15T03:43:58.717Z,33.70
2023-05-15T03:46:01.893Z,33.70
2023-05-15T03:48:05.784Z,33.70
2023-05-15T03:50:09.557Z,33.60
2023-05-15T03:52:12.610Z,33.30
2023-05-15T03:54:15.787Z,33.30
2023-05-15T03:56:21.409Z,33.40
2023-05-15T03:58:24.394Z,33.70
2023-05-15T04:00:27.489Z,33.60
2023-05-15T04:02:30.680Z,33.60
2023-05-15T04:04:33.822Z,33.80
2023-05-15T04:06:37.580Z,33.80
2023-05-15T04:08:41.558Z,34.00
2023-05-15T04:10:44.946Z,34.00
2023-05-15T04:12:49.660Z,34.30
2023-05-15T04:14:53.034Z,34.50
2023-05-15T04:16:56.348Z,34.40
2023-05-15T04:19:01.669Z,34.70
2023-05-15T04:21:04.969Z,35.00
2023-05-15T04:23:08.231Z,35.20
2023-05-15T04:25:12.093Z,35.30
2023-05-15T04:27:15.197Z,35.60
2023-05-15T04:29:19.913Z,35.50
2023-05-15T04:31:22.912Z,36.00
2023-05-15T04:33:26.223Z,36.00
2023-05-15T04:35:29.420Z,36.20
2023-05-15T04:37:32.572Z,36.50
2023-05-15T04:39:35.561Z,36.50
2023-05-15T04:41:38.645Z,36.60
2023-05-15T04:43:41.861Z,36.60
2023-05-15T04:45:46.455Z,36.90
2023-05-15T04:47:49.720Z,37.20
2023-05-15T04:49:52.808Z,37.10
2023-05-15T04:51:56.049Z,37.40
2023-05-15T04:53:59.413Z,37.40
2023-05-15T04:56:02.575Z,37.60
2023-05-15T04:58:05.676Z,37.70
2023-05-15T05:00:12.294Z,37.70
2023-05-15T05:02:16.936Z,37.90
2023-05-15T05:04:20.732Z,38.00
2023-05-15T05:06:24.562Z,37.90
2023-05-15T05:08:27.537Z,37.90
2023-05-15T05:10:30.482Z,38.00
2023-05-15T05:12:33.541Z,37.80
2023-05-15T05:14:36.893Z,37.90
2023-05-15T05:16:40.363Z,37.90
2023-05-15T05:18:44.848Z,37.80
2023-05-15T05:20:47.938Z,38.70
2023-05-15T05:22:50.940Z,37.90
2023-05-15T05:24:54.444Z,38.10
2023-05-15T05:26:58.259Z,38.10
2023-05-15T05:29:01.548Z,37.90
2023-05-15T05:31:04.781Z,37.90
2023-05-15T05:33:07.923Z,37.80
2023-05-15T05:35:14.873Z,37.90
2023-05-15T05:37:17.818Z,38.10
2023-05-15T05:39:20.845Z,38.00
2023-05-15T05:41:23.787Z,37.80
2023-05-15T05:43:27.635Z,37.60
2023-05-15T05:45:31.064Z,37.90
2023-05-15T05:47:34.549Z,38.50
2023-05-15T05:49:37.532Z,37.80
2023-05-15T05:51:41.880Z,38.30
2023-05-15T05:53:44.859Z,37.70
2023-05-15T05:55:47.916Z,37.90
2023-05-15T05:57:51.027Z,37.60
2023-05-15T05:59:54.089Z,37.50
2023-05-15T06:01:57.771Z,37.40
2023-05-15T06:04:01.497Z,37.50
2023-05-15T06:06:05.090Z,37.40
2023-05-15T06:08:09.603Z,37.20
2023-05-15T06:10:13.893Z,37.20
2023-05-15T06:12:17.062Z,37.30
2023-05-15T06:14:21.214Z,37.30
2023-05-15T06:16:24.582Z,37.00
2023-05-15T06:18:27.901Z,37.00
2023-05-15T06:20:31.092Z,37.00
2023-05-15T06:22:33.954Z,36.90
2023-05-15T06:24:38.295Z,37.00
2023-05-15T06:26:41.399Z,36.70
2023-05-15T06:28:45.850Z,36.70
2023-05-15T06:30:48.921Z,36.40
2023-05-15T06:32:52.092Z,36.30
2023-05-15T06:34:56.594Z,36.00
2023-05-15T06:36:59.989Z,36.20
2023-05-15T06:39:03.052Z,35.90
2023-05-15T06:41:07.378Z,36.20
2023-05-15T06:43:10.502Z,36.10
2023-05-15T06:45:13.459Z,36.30
2023-05-15T06:47:16.535Z,36.50
2023-05-15T06:49:19.684Z,36.00
2023-05-15T06:51:22.661Z,36.20
2023-05-15T06:53:25.802Z,36.30
2023-05-15T06:55:28.843Z,36.50
2023-05-15T06:57:34.769Z,36.40
2023-05-15T06:59:37.879Z,36.10
2023-05-15T07:01:40.964Z,36.30
2023-05-15T07:03:44.702Z,36.20
2023-05-15T07:05:48.069Z,35.60
2023-05-15T07:07:51.031Z,34.70
2023-05-15T07:09:54.002Z,34.10
2023-05-15T07:11:57.014Z,33.60
2023-05-15T07:14:02.264Z,33.60
2023-05-15T07:16:05.871Z,33.70
2023-05-15T07:18:09.224Z,33.70
2023-05-15T07:20:12.893Z,33.50
2023-05-15T07:22:15.901Z,33.70
2023-05-15T07:24:19.143Z,33.50
2023-05-15T07:26:32.845Z,33.30
2023-05-15T07:28:39.380Z,32.90
2023-05-15T07:30:43.698Z,32.70
2023-05-15T07:32:46.931Z,32.70
2023-05-15T07:34:50.108Z,32.80
2023-05-15T07:36:53.410Z,32.80
2023-05-15T07:38:56.405Z,32.50
2023-05-15T07:40:59.615Z,32.20
2023-05-15T07:43:02.996Z,32.30
2023-05-15T07:45:07.079Z,32.60
2023-05-15T07:47:11.819Z,32.80
2023-05-15T07:49:14.890Z,32.80
2023-05-15T07:51:18.028Z,32.70
2023-05-15T07:53:21.011Z,32.50
2023-05-15T07:55:24.351Z,31.90
2023-05-15T07:57:27.540Z,31.80
2023-05-15T07:59:30.992Z,31.50
2023-05-15T08:01:34.025Z,31.60
2023-05-15T08:03:38.752Z,31.60
2023-05-15T08:05:41.786Z,31.20
2023-05-15T08:07:45.038Z,31.00
2023-05-15T08:09:48.091Z,30.80
2023-05-15T08:11:51.133Z,30.60
2023-05-15T08:13:54.273Z,30.20
2023-05-15T08:15:57.388Z,30.20
2023-05-15T08:18:00.701Z,30.00
2023-05-15T08:20:05.850Z,29.80
2023-05-15T08:22:09.176Z,29.70
2023-05-15T08:24:12.554Z,29.80
2023-05-15T08:29:04.062Z,30.00
2023-05-15T08:31:06.972Z,30.30
2023-05-15T08:33:09.815Z,30.10
2023-05-15T08:35:12.835Z,29.90
2023-05-15T08:37:15.783Z,29.70
2023-05-15T08:39:20.475Z,29.20
2023-05-15T08:41:40.447Z,28.80
2023-05-15T08:43:45.244Z,28.00
2023-05-15T08:45:53.832Z,28.00
2023-05-15T08:47:59.143Z,28.00
2023-05-15T08:50:10.868Z,27.90
2023-05-15T08:52:14.013Z,28.00
2023-05-15T08:54:17.166Z,28.00
2023-05-15T08:56:20.690Z,28.00
2023-05-15T08:58:25.990Z,27.80
2023-05-15T09:00:29.636Z,27.70
2023-05-15T09:02:34.352Z,27.40
2023-05-15T09:04:37.293Z,26.40
2023-05-15T09:06:43.369Z,26.40
2023-05-15T09:08:47.108Z,26.50
2023-05-15T09:10:50.841Z,26.50
2023-05-15T09:12:55.850Z,26.50
2023-05-15T09:15:12.859Z,26.50
2023-05-15T09:17:17.344Z,26.50
2023-05-15T09:19:22.483Z,26.50
2023-05-15T09:21:26.435Z,26.50
2023-05-15T09:23:31.668Z,27.00
2023-05-15T09:25:39.567Z,27.00
2023-05-15T09:27:44.024Z,26.70
2023-05-15T09:29:51.282Z,26.50
2023-05-15T09:31:54.603Z,26.30
2023-05-15T09:34:04.500Z,26.20
2023-05-15T09:36:10.313Z,25.60
2023-05-15T09:38:16.391Z,25.70
2023-05-15T09:40:20.368Z,25.70
2023-05-15T09:42:25.768Z,25.90
2023-05-15T09:44:29.018Z,26.00
2023-05-15T09:46:36.533Z,25.50
2023-05-15T09:48:40.152Z,25.30
2023-05-15T09:50:45.864Z,25.30
2023-05-15T09:52:50.505Z,25.30
2023-05-15T09:54:53.787Z,25.50
2023-05-15T09:56:57.860Z,24.70
2023-05-15T09:59:01.038Z,24.70
2023-05-15T10:01:05.923Z,24.50
2023-05-15T10:03:10.590Z,24.30
2023-05-15T10:05:13.934Z,24.80
2023-05-15T10:07:28.932Z,24.90
2023-05-15T10:09:34.092Z,24.50
2023-05-15T10:11:38.191Z,24.70
2023-05-15T10:13:41.730Z,24.70
2023-05-15T10:15:49.634Z,24.50
2023-05-15T10:17:56.127Z,24.20
2023-05-15T10:20:08.849Z,24.00
2023-05-15T10:22:15.945Z,23.60
2023-05-15T10:24:22.113Z,23.50
2023-05-15T10:26:35.103Z,22.50
2023-05-15T10:28:38.738Z,22.80
2023-05-15T10:30:44.784Z,22.80
2023-05-15T10:32:48.169Z,22.40
2023-05-15T10:34:52.049Z,22.30
2023-05-15T10:36:57.750Z,22.20
2023-05-15T10:39:02.118Z,21.80
2023-05-15T10:41:16.584Z,20.80
2023-05-15T10:43:23.464Z,21.30
2023-05-15T10:45:27.321Z,21.90
2023-05-15T10:47:31.791Z,22.30
2023-05-15T10:49:35.640Z,20.80
2023-05-15T10:51:40.258Z,21.30
2023-05-15T10:53:44.109Z,21.80
2023-05-15T10:55:49.794Z,21.60
2023-05-15T10:57:52.809Z,19.90
2023-05-15T10:59:59.078Z,18.30
2023-05-15T11:02:20.255Z,17.60
2023-05-15T11:04:26.361Z,17.90
2023-05-15T11:06:32.218Z,17.40
2023-05-15T11:08:35.779Z,17.20
2023-05-15T11:10:39.599Z,17.20
2023-05-15T11:12:57.085Z,18.20
2023-05-15T11:15:22.322Z,18.60
2023-05-15T11:17:25.694Z,19.00
2023-05-15T11:19:37.609Z,19.10
2023-05-15T11:21:47.248Z,19.40
2023-05-15T11:24:04.127Z,18.70
2023-05-15T11:26:07.049Z,19.50
2023-05-15T11:28:24.775Z,20.50
2023-05-15T11:30:40.678Z,21.70
2023-05-15T11:32:50.844Z,21.20
2023-05-15T11:35:00.912Z,20.60
2023-05-15T11:37:04.180Z,21.50
2023-05-15T11:39:12.521Z,22.30
2023-05-15T11:41:21.602Z,23.60
2023-05-15T11:43:26.092Z,24.10
2023-05-15T11:45:32.391Z,24.10
2023-05-15T11:47:36.973Z,24.60
2023-05-15T11:49:40.099Z,24.80
2023-05-15T11:51:46.315Z,24.80
2023-05-15T11:53:51.684Z,25.00
2023-05-15T11:55:55.228Z,25.60
2023-05-15T11:57:58.228Z,25.50
2023-05-15T12:00:02.342Z,25.80
2023-05-15T12:02:08.130Z,25.90
2023-05-15T12:04:17.158Z,26.00
2023-05-15T12:06:20.523Z,26.40
2023-05-15T12:08:23.443Z,26.20
2023-05-15T12:10:28.369Z,26.40
2023-05-15T12:12:31.297Z,26.40
2023-05-15T12:14:38.122Z,26.50
2023-05-15T12:16:41.080Z,26.50
2023-05-15T12:18:44.066Z,26.40
2023-05-15T12:20:53.294Z,26.80
2023-05-15T12:22:58.579Z,27.50
2023-05-15T12:25:01.622Z,27.30
2023-05-15T12:27:04.858Z,27.30
2023-05-15T12:29:08.091Z,27.60
2023-05-15T12:31:12.421Z,28.00
2023-05-15T12:33:15.676Z,28.60
2023-05-15T12:35:18.849Z,29.50
2023-05-15T12:37:23.295Z,28.80
2023-05-15T12:39:28.216Z,29.10
2023-05-15T12:41:31.098Z,28.50
2023-05-15T12:43:34.234Z,28.00
2023-05-15T12:45:40.962Z,27.70
2023-05-15T12:47:44.736Z,27.80
2023-05-15T12:49:49.638Z,28.10
2023-05-15T12:51:52.571Z,28.20
2023-05-15T12:53:58.934Z,28.10
2023-05-15T12:56:02.404Z,27.50
2023-05-15T12:58:08.483Z,27.60
2023-05-15T13:00:13.232Z,27.40
2023-05-15T13:02:18.309Z,27.60
2023-05-15T13:04:21.498Z,27.70
2023-05-15T13:06:31.879Z,27.60
2023-05-15T13:08:42.383Z,27.30
2023-05-15T13:10:47.884Z,26.20
2023-05-15T13:12:55.058Z,25.80
2023-05-15T13:14:58.021Z,26.20
2023-05-15T13:17:03.348Z,25.60
2023-05-15T13:19:07.270Z,24.90
2023-05-15T13:21:10.374Z,24.10
2023-05-15T13:23:16.109Z,24.60
2023-05-15T13:25:20.128Z,24.50
2023-05-15T13:27:25.607Z,23.90
2023-05-15T13:29:28.756Z,23.60
2023-05-15T13:31:32.079Z,24.20
2023-05-15T13:33:37.452Z,24.40
2023-05-15T13:35:41.454Z,24.10
2023-05-15T13:37:44.443Z,24.90
2023-05-15T13:39:50.911Z,23.90
2023-05-15T13:41:55.031Z,23.00
2023-05-15T13:43:59.218Z,21.90
2023-05-15T13:46:02.163Z,22.20
2023-05-15T13:48:07.807Z,22.10
2023-05-15T13:50:12.301Z,21.90
2023-05-15T13:52:15.357Z,22.20
2023-05-15T13:54:20.364Z,22.10
2023-05-15T13:56:23.275Z,22.10
2023-05-15T13:58:26.913Z,22.70
2023-05-15T14:00:31.760Z,22.30
2023-05-15T14:02:36.215Z,22.20
2023-05-15T14:04:39.163Z,22.60
2023-05-15T14:06:44.068Z,21.50
2023-05-15T14:08:49.090Z,21.20
2023-05-15T14:10:52.010Z,21.10
2023-05-15T14:12:55.173Z,21.00
2023-05-15T14:14:59.426Z,20.70
2023-05-15T14:17:04.014Z,21.10
2023-05-15T14:19:06.927Z,21.40
2023-05-15T14:21:09.850Z,21.90
2023-05-15T14:23:12.663Z,21.30
2023-05-15T14:25:15.701Z,21.90
2023-05-15T14:27:22.372Z,21.60
2023-05-15T14:29:27.601Z,21.20
2023-05-15T14:31:30.759Z,20.70
2023-05-15T14:33:35.049Z,20.90
2023-05-15T14:35:38.235Z,19.90
2023-05-15T14:37:41.139Z,19.30
2023-05-15T14:39:44.295Z,19.50
2023-05-15T14:41:51.156Z,19.40
2023-05-15T14:43:56.089Z,19.30
2023-05-15T14:46:01.731Z,19.10
2023-05-15T14:48:05.216Z,19.10
2023-05-15T14:50:12.750Z,19.00
2023-05-15T14:52:19.192Z,18.50
2023-05-15T14:54:22.218Z,19.60
2023-05-15T14:56:25.886Z,19.30
2023-05-15T14:58:34.914Z,19.70
2023-05-15T15:00:37.827Z,19.70
2023-05-15T15:02:53.660Z,19.70
2023-05-15T15:04:57.500Z,19.40
2023-05-15T15:07:04.871Z,19.40
2023-05-15T15:09:07.800Z,19.10
2023-05-15T15:11:11.712Z,19.50
2023-05-15T15:13:14.651Z,19.50
2023-05-15T15:15:18.054Z,19.50
2023-05-15T15:17:21.027Z,19.40
2023-05-15T15:19:26.009Z,19.40
2023-05-15T15:21:28.946Z,19.30
2023-05-15T15:23:33.173Z,19.80
2023-05-15T15:25:40.364Z,20.10
2023-05-15T15:27:43.603Z,20.30
2023-05-15T15:29:46.906Z,20.20
2023-05-15T15:31:49.789Z,19.40
2023-05-15T15:33:53.230Z,19.30
2023-05-15T15:35:56.593Z,19.50
2023-05-15T15:37:59.426Z,19.40
2023-05-15T15:40:05.785Z,19.00
2023-05-15T15:42:08.764Z,18.90
2023-05-15T15:44:13.568Z,19.00
2023-05-15T15:46:16.507Z,19.40
2023-05-15T15:48:28.102Z,19.70
2023-05-15T15:50:34.094Z,19.60
2023-05-15T15:52:37.179Z,19.50
2023-05-15T15:54:46.814Z,19.70
2023-05-15T15:56:52.586Z,19.50
2023-05-15T15:58:55.529Z,19.20
2023-05-15T16:01:04.019Z,19.20
2023-05-15T16:03:07.309Z,19.20
2023-05-15T16:05:13.385Z,19.40
2023-05-15T16:07:16.746Z,19.60
2023-05-15T16:09:20.226Z,19.10
2023-05-15T16:11:23.888Z,18.70
2023-05-15T16:13:28.105Z,18.70
2023-05-15T16:15:30.995Z,18.20
2023-05-15T16:17:38.519Z,18.20
2023-05-15T16:19:41.587Z,18.60
2023-05-15T16:21:44.575Z,18.70
2023-05-15T16:23:47.512Z,18.70
2023-05-15T16:25:55.035Z,18.30
2023-05-15T16:27:58.106Z,18.10
2023-05-15T16:30:03.509Z,18.30
2023-05-15T16:32:07.171Z,18.90
2023-05-15T16:34:10.196Z,18.90
2023-05-15T16:36:13.300Z,19.10
2023-05-15T16:38:17.966Z,18.90
2023-05-15T16:40:21.028Z,18.70
2023-05-15T16:42:23.921Z,18.50
2023-05-15T16:44:26.823Z,18.50
2023-05-15T16:46:32.282Z,18.60
2023-05-15T16:48:35.218Z,17.90
2023-05-15T16:50:40.413Z,17.20
2023-05-15T16:52:45.822Z,16.70
2023-05-15T16:54:50.740Z,15.90
2023-05-15T16:56:53.659Z,16.00
2023-05-15T16:58:56.510Z,15.90
2023-05-15T17:01:00.288Z,15.90
2023-05-15T17:03:07.163Z,15.90
2023-05-15T17:05:12.896Z,15.60
2023-05-15T17:07:18.788Z,15.50
2023-05-15T17:09:22.300Z,15.20
2023-05-15T17:11:25.625Z,15.20
2023-05-15T17:13:28.593Z,15.20
2023-05-15T17:15:31.604Z,15.30
2023-05-15T17:17:35.839Z,15.10
2023-05-15T17:19:40.062Z,14.80
2023-05-15T17:21:44.800Z,14.80
2023-05-15T17:23:50.608Z,15.20
2023-05-15T17:25:55.791Z,15.40
2023-05-15T17:27:58.707Z,15.60
2023-05-15T17:30:01.736Z,15.70
2023-05-15T17:32:05.284Z,15.70
2023-05-15T17:34:11.892Z,15.90
2023-05-15T17:36:16.117Z,16.00
2023-05-15T17:38:19.075Z,16.00
2023-05-15T17:40:21.918Z,16.20
2023-05-15T17:42:28.297Z,16.30
2023-05-15T17:44:31.773Z,16.40
2023-05-15T17:46:34.848Z,17.00
2023-05-15T17:48:40.662Z,16.70
2023-05-15T17:50:45.053Z,16.70
2023-05-15T17:52:49.306Z,16.70
2023-05-15T17:54:55.288Z,16.80
2023-05-15T17:56:58.822Z,16.70
2023-05-15T17:59:03.924Z,16.80
2023-05-15T18:01:07.095Z,16.70
2023-05-15T18:03:16.063Z,16.90
2023-05-15T18:05:20.165Z,17.00
2023-05-15T18:07:23.084Z,17.10
2023-05-15T18:09:31.299Z,17.10
2023-05-15T18:11:35.941Z,17.10
2023-05-15T18:13:38.855Z,17.10
2023-05-15T18:15:43.286Z,17.10
2023-05-15T18:17:50.717Z,17.30
2023-05-15T18:19:53.722Z,17.40
2023-05-15T18:21:57.527Z,17.50
2023-05-15T18:24:05.093Z,17.60
2023-05-15T18:26:09.313Z,17.90
2023-05-15T18:28:12.345Z,18.00
2023-05-15T18:30:17.351Z,18.10
2023-05-15T18:32:20.281Z,18.20
2023-05-15T18:34:23.355Z,18.60
2023-05-15T18:36:26.247Z,18.80
2023-05-15T18:38:30.180Z,18.80
2023-05-15T18:40:33.255Z,19.00
2023-05-15T18:42:37.497Z,19.20
2023-05-15T18:44:43.660Z,19.40
2023-05-15T18:46:46.716Z,19.30
2023-05-15T18:48:49.554Z,19.60
2023-05-15T18:50:53.918Z,19.70
2023-05-15T18:52:56.799Z,19.90
2023-05-15T18:55:01.453Z,19.80
2023-05-15T18:57:08.020Z,20.00
2023-05-15T18:59:13.630Z,20.30
2023-05-15T19:01:16.937Z,20.50
2023-05-15T19:03:20.742Z,20.50
2023-05-15T19:05:24.189Z,20.60
2023-05-15T19:07:29.516Z,20.60
2023-05-15T19:09:34.199Z,20.70
2023-05-15T19:11:37.095Z,20.70
2023-05-15T19:13:42.240Z,20.50
2023-05-15T19:15:52.747Z,20.80
2023-05-15T19:17:55.771Z,20.90
2023-05-15T19:19:58.667Z,20.90
2023-05-15T19:22:01.523Z,21.00
2023-05-15T19:24:06.928Z,21.00
2023-05-15T19:26:11.739Z,21.20
2023-05-15T19:28:15.024Z,21.40
2023-05-15T19:30:21.458Z,21.60
2023-05-15T19:32:28.448Z,21.80
2023-05-15T19:34:33.466Z,22.20
2023-05-15T19:36:36.381Z,22.00
2023-05-15T19:38:39.310Z,22.10
2023-05-15T19:40:45.800Z,22.20
2023-05-15T19:42:48.820Z,22.50
2023-05-15T19:44:51.721Z,22.40
2023-05-15T19:46:54.722Z,22.70
2023-05-15T19:49:01.345Z,22.70
2023-05-15T19:51:04.274Z,22.90
2023-05-15T19:53:07.491Z,23.30
2023-05-15T19:55:13.004Z,23.40
2023-05-15T19:57:15.893Z,23.50
2023-05-15T19:59:18.779Z,24.10
2023-05-15T20:01:21.961Z,23.50
2023-05-15T20:03:25.875Z,23.50
2023-05-15T20:05:30.378Z,23.50
2023-05-15T20:07:37.380Z,23.60
2023-05-15T20:09:51.675Z,24.00
2023-05-15T20:11:54.737Z,23.80
2023-05-15T20:13:57.688Z,23.90
2023-05-15T20:16:03.721Z,24.30
2023-05-15T20:18:07.507Z,24.60
2023-05-15T20:20:13.493Z,24.80
2023-05-15T20:22:18.549Z,25.00
2023-05-15T20:24:25.570Z,25.10
2023-05-15T20:26:28.609Z,25.10
2023-05-15T20:28:35.795Z,25.10
2023-05-15T20:30:38.753Z,25.30
2023-05-15T20:32:43.860Z,25.40
2023-05-15T20:34:47.514Z,25.50
2023-05-15T20:36:52.579Z,25.60
2023-05-15T20:38:56.738Z,25.60
2023-05-15T20:40:59.678Z,25.80
2023-05-15T20:43:02.557Z,25.70
2023-05-15T20:45:06.215Z,25.80
2023-05-15T20:47:09.121Z,26.00
2023-05-15T20:49:12.195Z,26.00
2023-05-15T20:51:15.938Z,26.10
2023-05-15T20:53:18.895Z,26.00
2023-05-15T20:55:24.867Z,26.10
2023-05-15T20:57:29.891Z,26.20
2023-05-15T20:59:33.840Z,26.30
2023-05-15T21:01:36.784Z,26.40
2023-05-15T21:03:42.751Z,26.30
2023-05-15T21:05:45.783Z,26.40
2023-05-15T21:07:51.485Z,26.40
2023-05-15T21:09:58.641Z,26.50
2023-05-15T21:12:03.956Z,26.70
2023-05-15T21:14:07.324Z,26.70
2023-05-15T21:16:10.219Z,26.70
2023-05-15T21:18:15.462Z,26.80
2023-05-15T21:20:20.180Z,26.90
2023-05-15T21:22:23.415Z,27.00
2023-05-15T21:24:26.375Z,26.90
2023-05-15T21:26:29.638Z,26.90
2023-05-15T21:28:33.958Z,27.00
2023-05-15T21:30:36.834Z,27.20
2023-05-15T21:32:39.716Z,27.20
2023-05-15T21:34:42.983Z,27.20
2023-05-15T21:36:45.964Z,27.30
2023-05-15T21:38:48.828Z,27.30
2023-05-15T21:40:51.684Z,27.30
2023-05-15T21:42:54.529Z,27.40
2023-05-15T21:45:01.191Z,27.50
2023-05-15T21:47:04.603Z,27.50
2023-05-15T21:49:07.455Z,27.40
2023-05-15T21:51:10.349Z,27.40
2023-05-15T21:53:13.349Z,27.50
2023-05-15T21:55:18.422Z,27.50
2023-05-15T21:57:23.510Z,27.70
2023-05-15T21:59:28.850Z,27.70
2023-05-15T22:01:33.176Z,27.80
2023-05-15T22:03:36.264Z,27.80
2023-05-15T22:05:39.272Z,27.70
2023-05-15T22:07:42.137Z,27.90
2023-05-15T22:09:48.342Z,28.00
2023-05-15T22:11:54.967Z,27.80
2023-05-15T22:13:57.897Z,27.80
2023-05-15T22:16:04.385Z,27.70
2023-05-15T22:18:12.482Z,27.80
2023-05-15T22:20:19.303Z,27.90
2023-05-15T22:22:25.346Z,27.80
2023-05-15T22:24:33.225Z,27.80
2023-05-15T22:26:42.182Z,27.80
2023-05-15T22:28:45.245Z,27.80
2023-05-15T22:30:48.510Z,27.80
2023-05-15T22:32:51.580Z,27.90
2023-05-15T22:34:56.297Z,27.90
2023-05-15T22:37:01.979Z,28.00
2023-05-15T22:39:06.978Z,28.00
2023-05-15T22:41:09.883Z,27.90
2023-05-15T22:43:12.983Z,27.90
2023-05-15T22:45:18.606Z,27.90
2023-05-15T22:47:21.913Z,28.00
2023-05-15T22:49:27.452Z,27.90
2023-05-15T22:51:34.282Z,28.00
2023-05-15T22:53:37.335Z,28.10
2023-05-15T22:55:40.194Z,27.90
2023-05-15T22:57:44.349Z,28.00
2023-05-15T22:59:47.590Z,27.90
2023-05-15T23:01:51.349Z,27.90
2023-05-15T23:03:54.345Z,27.80
2023-05-15T23:05:57.336Z,28.00
2023-05-15T23:08:01.649Z,27.90
2023-05-15T23:10:04.888Z,28.00
2023-05-15T23:12:08.515Z,27.90
2023-05-15T23:14:12.484Z,28.00
2023-05-15T23:16:16.214Z,28.00
2023-05-15T23:18:22.091Z,28.00
2023-05-15T23:20:25.472Z,28.00
2023-05-15T23:22:28.789Z,27.90
2023-05-15T23:24:33.121Z,28.10
2023-05-15T23:26:36.155Z,28.30
2023-05-15T23:28:39.109Z,28.10
2023-05-15T23:30:42.021Z,28.20
2023-05-15T23:32:44.974Z,28.20
2023-05-15T23:34:48.056Z,28.20
2023-05-15T23:36:50.972Z,28.10
2023-05-15T23:38:53.885Z,28.10
2023-05-15T23:40:58.427Z,28.10
2023-05-15T23:43:04.015Z,28.20
2023-05-15T23:45:08.362Z,28.10
2023-05-15T23:47:11.496Z,28.30
2023-05-15T23:49:14.452Z,28.20
2023-05-15T23:51:17.438Z,28.30
2023-05-15T23:53:20.333Z,28.40
2023-05-15T23:55:23.210Z,28.30
2023-05-15T23:57:27.516Z,28.20
2023-05-15T23:59:31.504Z,28.40
